Time;durP1;ratioP1;P1;durP2;ratioP2;P2;SDS_P1;SDS_P2;PMS_P1;PMS_P2;Temp;Humidity;BMP_temperature;BMP_pressure;BME280_temperature;BME280_humidity;BME280_pressure;Samples;Min_cycle;Max_cycle;Signal;HPM_P1;HPM_P2
2022/04/14 00:00:34;;;;;;;37.47;23.45;;;;;;;;;;4994134;28;94304;-75
2022/04/14 00:03:00;;;;;;;34.88;21.85;;;;;;;;;;4993917;28;92471;-74
2022/04/14 00:05:27;;;;;;;34.17;22.42;;;;;;;;;;4994221;28;93958;-75
2022/04/14 00:07:54;;;;;;;30.27;21.75;;;;;;;;;;4993756;28;94178;-74
2022/04/14 00:10:20;;;;;;;32.65;22.35;;;;;;;;;;4996631;28;92505;-74
2022/04/14 00:12:48;;;;;;;34.53;22.33;;;;;;;;;;4994158;28;94057;-74
2022/04/14 00:15:14;;;;;;;33.05;22.20;;;;;;;;;;4994909;28;91723;-74
2022/04/14 00:17:40;;;;;;;28.45;22.88;;;;;;;;;;4993080;28;92885;-74
2022/04/14 00:20:08;;;;;;;26.88;22.52;;;;;;;;;;4994288;28;94708;-74
2022/04/14 00:22:35;;;;;;;29.83;22.40;;;;;;;;;;4992241;28;94798;-74
2022/04/14 00:25:02;;;;;;;34.00;23.80;;;;;;;;;;4993424;28;95519;-75
2022/04/14 00:27:29;;;;;;;32.05;23.40;;;;;;;;;;4993728;28;94369;-75
2022/04/14 00:29:55;;;;;;;31.30;22.63;;;;;;;;;;4997494;28;92470;-74
2022/04/14 00:32:21;;;;;;;32.63;23.08;;;;;;;;;;4993110;28;94169;-74
2022/04/14 00:34:48;;;;;;;36.80;22.83;;;;;;;;;;4994140;28;92496;-74
2022/04/14 00:37:17;;;;;;;35.33;23.38;;;;;;;;;;4993892;28;93579;-74
2022/04/14 00:39:44;;;;;;;33.10;23.20;;;;;;;;;;4993446;28;93839;-74
2022/04/14 00:42:11;;;;;;;34.25;22.83;;;;;;;;;;4993886;28;92591;-74
2022/04/14 00:44:37;;;;;;;37.10;23.83;;;;;;;;;;4993723;28;94164;-75
2022/04/14 00:47:04;;;;;;;32.10;24.42;;;;;;;;;;4991514;28;96757;-75
2022/04/14 00:49:31;;;;;;;36.65;23.90;;;;;;;;;;4993844;28;92479;-75
2022/04/14 00:52:00;;;;;;;42.63;26.75;;;;;;;;;;4997037;28;93086;-74
2022/04/14 00:54:30;;;;;;;39.30;27.15;;;;;;;;;;4992838;28;92418;-75
2022/04/14 00:57:00;;;;;;;39.28;27.05;;;;;;;;;;4993598;28;92940;-75
2022/04/14 00:59:27;;;;;;;40.92;28.95;;;;;;;;;;4992702;28;95549;-75
2022/04/14 01:01:54;;;;;;;41.92;29.05;;;;;;;;;;4993601;28;92480;-75
2022/04/14 01:04:20;;;;;;;44.28;29.23;;;;;;;;;;4994174;28;94440;-74
2022/04/14 01:06:47;;;;;;;39.65;29.50;;;;;;;;;;4992546;28;94230;-75
2022/04/14 01:09:19;;;;;;;45.20;28.63;;;;;;;;;;4993339;28;92492;-75
2022/04/14 01:11:46;;;;;;;41.60;29.77;;;;;;;;;;4991789;28;94933;-74
2022/04/14 01:14:21;;;;;;;46.40;30.83;;;;;;;;;;4995692;28;94322;-74
2022/04/14 01:16:47;;;;;;;41.33;29.55;;;;;;;;;;4993466;28;93105;-73
2022/04/14 01:19:14;;;;;;;43.17;30.55;;;;;;;;;;4993355;28;93987;-74
2022/04/14 01:21:41;;;;;;;38.10;29.50;;;;;;;;;;4992020;28;92475;-74
2022/04/14 01:24:09;;;;;;;42.78;28.58;;;;;;;;;;4993534;28;94048;-74
2022/04/14 01:26:37;;;;;;;44.80;30.38;;;;;;;;;;4992954;28;94217;-74
2022/04/14 01:29:03;;;;;;;48.30;31.00;;;;;;;;;;4993098;28;91762;-74
2022/04/14 01:31:30;;;;;;;53.22;32.53;;;;;;;;;;4992617;28;93392;-73
2022/04/14 01:33:56;;;;;;;51.60;31.55;;;;;;;;;;4992907;28;94083;-73
2022/04/14 01:36:23;;;;;;;45.88;30.30;;;;;;;;;;4993396;28;95028;-74
2022/04/14 01:38:49;;;;;;;49.55;32.45;;;;;;;;;;4992953;28;93071;-74
2022/04/14 01:41:15;;;;;;;51.20;33.58;;;;;;;;;;4993010;28;92468;-73
2022/04/14 01:43:43;;;;;;;45.13;30.13;;;;;;;;;;4992091;28;92916;-74
2022/04/14 01:46:10;;;;;;;44.13;30.88;;;;;;;;;;4992947;28;93277;-73
2022/04/14 01:48:39;;;;;;;47.40;30.52;;;;;;;;;;4991975;28;92668;-74
2022/04/14 01:51:06;;;;;;;51.42;31.73;;;;;;;;;;4992861;28;93350;-73
2022/04/14 01:53:32;;;;;;;48.83;32.75;;;;;;;;;;4992962;28;93651;-74
2022/04/14 01:55:59;;;;;;;56.60;34.85;;;;;;;;;;4992314;28;92819;-74
2022/04/14 01:58:25;;;;;;;52.67;35.50;;;;;;;;;;4995280;28;93138;-74
2022/04/14 02:00:52;;;;;;;49.72;34.47;;;;;;;;;;4991400;28;95183;-74
2022/04/14 02:03:19;;;;;;;50.55;32.88;;;;;;;;;;4991887;28;96700;-74
2022/04/14 02:05:45;;;;;;;52.85;33.83;;;;;;;;;;4992227;28;93198;-74
2022/04/14 02:08:11;;;;;;;49.00;34.60;;;;;;;;;;4992357;28;92885;-73
2022/04/14 02:10:38;;;;;;;54.70;35.40;;;;;;;;;;4992076;28;93850;-74
2022/04/14 02:13:04;;;;;;;50.40;33.92;;;;;;;;;;4992337;28;94453;-74
2022/04/14 02:15:32;;;;;;;57.65;33.75;;;;;;;;;;4992139;28;92570;-74
2022/04/14 02:17:58;;;;;;;50.88;34.53;;;;;;;;;;4995130;28;94018;-74
2022/04/14 02:20:24;;;;;;;55.70;34.10;;;;;;;;;;4992084;28;92527;-74
2022/04/14 02:22:51;;;;;;;53.47;35.47;;;;;;;;;;4992510;28;92969;-74
2022/04/14 02:25:17;;;;;;;44.90;33.03;;;;;;;;;;4989862;28;96578;-74
2022/04/14 02:27:43;;;;;;;52.42;35.00;;;;;;;;;;4991817;28;92696;-74
2022/04/14 02:30:10;;;;;;;51.17;34.20;;;;;;;;;;4992361;28;93988;-74
2022/04/14 02:32:37;;;;;;;50.75;33.10;;;;;;;;;;4991184;28;94128;-74
2022/04/14 02:35:04;;;;;;;51.00;34.40;;;;;;;;;;4991309;28;92488;-74
2022/04/14 02:37:30;;;;;;;51.28;34.10;;;;;;;;;;4991667;28;94316;-74
2022/04/14 02:39:57;;;;;;;52.90;34.17;;;;;;;;;;4994630;28;94220;-74
2022/04/14 02:42:23;;;;;;;44.13;31.58;;;;;;;;;;4992277;28;94056;-74
2022/04/14 02:44:50;;;;;;;48.55;33.45;;;;;;;;;;4991618;28;93447;-74
2022/04/14 02:47:16;;;;;;;44.70;32.35;;;;;;;;;;4992026;28;92475;-74
2022/04/14 02:49:43;;;;;;;45.67;31.52;;;;;;;;;;4990173;28;95702;-74
2022/04/14 02:52:09;;;;;;;42.47;30.75;;;;;;;;;;4991714;28;93244;-74
2022/04/14 02:54:37;;;;;;;48.25;31.45;;;;;;;;;;4991699;28;92461;-74
2022/04/14 02:57:05;;;;;;;47.25;32.92;;;;;;;;;;4991706;28;93943;-74
2022/04/14 02:59:32;;;;;;;46.78;31.60;;;;;;;;;;4991087;28;93333;-74
2022/04/14 03:01:58;;;;;;;50.20;32.60;;;;;;;;;;4995202;28;92473;-74
2022/04/14 03:04:26;;;;;;;48.42;31.55;;;;;;;;;;4991490;28;94001;-74
2022/04/14 03:06:52;;;;;;;52.50;33.65;;;;;;;;;;4992401;28;92426;-74
2022/04/14 03:09:19;;;;;;;49.55;32.80;;;;;;;;;;4991565;28;93348;-74
2022/04/14 03:11:45;;;;;;;52.80;34.45;;;;;;;;;;4991595;28;94723;-74
2022/04/14 03:14:12;;;;;;;56.75;34.67;;;;;;;;;;4989534;28;94914;-74
2022/04/14 03:16:38;;;;;;;50.85;34.03;;;;;;;;;;4991309;28;95649;-74
2022/04/14 03:19:05;;;;;;;54.90;35.65;;;;;;;;;;4991456;28;94463;-74
2022/04/14 03:21:31;;;;;;;59.30;35.20;;;;;;;;;;4990827;28;92455;-74
2022/04/14 03:23:57;;;;;;;53.50;35.25;;;;;;;;;;4994471;28;94236;-74
2022/04/14 03:26:24;;;;;;;51.85;35.20;;;;;;;;;;4991369;28;92467;-74
2022/04/14 03:28:50;;;;;;;53.15;36.13;;;;;;;;;;4990929;28;93352;-74
2022/04/14 03:31:17;;;;;;;61.80;38.45;;;;;;;;;;4991976;28;93176;-74
2022/04/14 03:33:43;;;;;;;61.90;39.30;;;;;;;;;;4991343;28;92453;-74
2022/04/14 03:36:09;;;;;;;59.50;40.30;;;;;;;;;;4990950;28;93939;-74
2022/04/14 03:38:36;;;;;;;69.63;42.92;;;;;;;;;;4989105;28;96549;-74
2022/04/14 03:41:04;;;;;;;58.88;38.40;;;;;;;;;;4990344;28;92473;-74
2022/04/14 03:43:31;;;;;;;66.13;40.25;;;;;;;;;;4991645;28;94097;-74
2022/04/14 03:45:57;;;;;;;67.90;42.72;;;;;;;;;;4996314;28;94089;-73
2022/04/14 03:48:24;;;;;;;65.00;42.13;;;;;;;;;;4993835;28;94027;-74
2022/04/14 03:50:50;;;;;;;66.35;42.75;;;;;;;;;;4995074;28;94291;-74
2022/04/14 03:53:18;;;;;;;66.03;43.38;;;;;;;;;;4994527;28;92772;-74
2022/04/14 03:55:46;;;;;;;70.97;43.38;;;;;;;;;;4994286;28;94094;-74
2022/04/14 03:58:14;;;;;;;58.80;40.10;;;;;;;;;;4994463;28;94393;-74
2022/04/14 04:00:41;;;;;;;68.22;41.90;;;;;;;;;;4994416;28;92979;-74
2022/04/14 04:03:11;;;;;;;59.92;39.83;;;;;;;;;;4992563;28;95346;-74
2022/04/14 04:05:38;;;;;;;63.88;39.28;;;;;;;;;;4994285;28;93682;-74
2022/04/14 04:08:05;;;;;;;67.43;40.55;;;;;;;;;;4996965;28;92463;-74
2022/04/14 04:10:31;;;;;;;65.63;41.30;;;;;;;;;;4993341;28;94553;-74
2022/04/14 04:12:58;;;;;;;66.40;41.33;;;;;;;;;;4994680;28;92513;-74
2022/04/14 04:15:24;;;;;;;56.97;38.78;;;;;;;;;;4994369;28;93262;-74
2022/04/14 04:17:53;;;;;;;64.43;39.13;;;;;;;;;;4993623;28;94145;-74
2022/04/14 04:20:23;;;;;;;57.42;38.20;;;;;;;;;;4994617;28;91716;-74
2022/04/14 04:22:49;;;;;;;60.33;38.35;;;;;;;;;;4994137;28;93283;-74
2022/04/14 04:25:15;;;;;;;60.67;38.75;;;;;;;;;;4993436;28;93739;-74
2022/04/14 04:27:42;;;;;;;64.40;39.53;;;;;;;;;;4995360;28;94958;-74
2022/04/14 04:30:08;;;;;;;74.78;44.30;;;;;;;;;;4993584;28;93990;-74
2022/04/14 04:32:35;;;;;;;67.00;39.40;;;;;;;;;;4993743;28;92455;-74
2022/04/14 04:35:01;;;;;;;69.63;40.95;;;;;;;;;;4993803;28;94478;-74
2022/04/14 04:37:28;;;;;;;68.70;41.85;;;;;;;;;;4993068;28;92534;-73
2022/04/14 04:39:55;;;;;;;57.95;37.67;;;;;;;;;;4993928;28;92439;-74
2022/04/14 04:42:21;;;;;;;59.00;38.15;;;;;;;;;;4993556;28;93201;-73
2022/04/14 04:44:47;;;;;;;57.78;37.83;;;;;;;;;;4994064;28;92808;-74
2022/04/14 04:47:14;;;;;;;61.00;37.38;;;;;;;;;;4993543;28;92428;-74
2022/04/14 04:49:40;;;;;;;64.30;39.15;;;;;;;;;;4996413;28;94158;-74
2022/04/14 04:52:07;;;;;;;64.47;39.72;;;;;;;;;;4991462;28;94905;-73
2022/04/14 04:54:33;;;;;;;68.90;40.05;;;;;;;;;;4993399;28;96419;-74
2022/04/14 04:56:59;;;;;;;56.15;37.10;;;;;;;;;;4992627;28;93681;-73
2022/04/14 04:59:26;;;;;;;59.50;36.83;;;;;;;;;;4992526;28;92557;-74
2022/04/14 05:01:52;;;;;;;60.30;36.85;;;;;;;;;;4993346;28;94068;-73
2022/04/14 05:04:18;;;;;;;62.58;38.95;;;;;;;;;;4993364;28;94205;-74
2022/04/14 05:06:45;;;;;;;66.00;39.33;;;;;;;;;;4992623;28;92527;-73
2022/04/14 05:09:11;;;;;;;55.53;36.55;;;;;;;;;;4993665;28;94010;-74
2022/04/14 05:11:37;;;;;;;59.35;36.25;;;;;;;;;;4996160;28;94783;-74
2022/04/14 05:14:04;;;;;;;58.42;38.22;;;;;;;;;;4992835;28;94399;-74
2022/04/14 05:16:30;;;;;;;60.50;37.80;;;;;;;;;;4990880;28;96551;-74
2022/04/14 05:18:56;;;;;;;61.17;36.72;;;;;;;;;;4993163;28;92842;-74
2022/04/14 05:21:23;;;;;;;56.97;35.75;;;;;;;;;;4992472;28;94187;-74
2022/04/14 05:23:49;;;;;;;54.05;34.63;;;;;;;;;;4993032;28;94317;-75
2022/04/14 05:26:16;;;;;;;56.83;35.80;;;;;;;;;;4993208;28;92633;-73
2022/04/14 05:28:42;;;;;;;53.30;34.10;;;;;;;;;;4992206;28;94081;-73
2022/04/14 05:31:08;;;;;;;51.33;33.25;;;;;;;;;;4992902;28;94197;-73
2022/04/14 05:33:35;;;;;;;55.80;35.97;;;;;;;;;;4995687;28;92113;-73
2022/04/14 05:36:01;;;;;;;49.55;34.08;;;;;;;;;;4992844;28;93541;-74
2022/04/14 05:38:27;;;;;;;56.67;34.33;;;;;;;;;;4992748;28;92620;-74
2022/04/14 05:40:54;;;;;;;55.80;37.10;;;;;;;;;;4990894;28;95479;-74
2022/04/14 05:43:27;;;;;;;47.80;32.75;;;;;;;;;;4992668;28;94148;-74
2022/04/14 05:45:53;;;;;;;;;;;;;;;;;;4993336;28;92479;-74
2022/04/14 05:48:20;;;;;;;45.70;31.75;;;;;;;;;;4993522;28;123766;-74
2022/04/14 05:50:47;;;;;;;49.40;32.83;;;;;;;;;;4992653;28;94178;-74
2022/04/14 05:53:14;;;;;;;44.40;31.63;;;;;;;;;;4992885;28;92443;-74
2022/04/14 05:55:40;;;;;;;45.30;32.47;;;;;;;;;;4994799;28;94039;-74
2022/04/14 05:58:07;;;;;;;44.83;30.73;;;;;;;;;;4993402;28;91812;-74
2022/04/14 06:00:34;;;;;;;39.95;31.02;;;;;;;;;;4992307;28;92518;-74
2022/04/14 06:03:01;;;;;;;46.17;31.55;;;;;;;;;;4991728;28;94197;-74
2022/04/14 06:05:28;;;;;;;41.50;29.45;;;;;;;;;;4990641;28;94978;-74
2022/04/14 06:07:55;;;;;;;40.33;28.77;;;;;;;;;;4993673;28;95298;-74
2022/04/14 06:10:22;;;;;;;39.08;28.00;;;;;;;;;;4992047;28;93127;-74
2022/04/14 06:12:49;;;;;;;33.45;26.67;;;;;;;;;;4992617;28;92493;-74
2022/04/14 06:15:16;;;;;;;39.50;26.88;;;;;;;;;;4992402;28;93915;-73
2022/04/14 06:17:42;;;;;;;38.78;27.38;;;;;;;;;;4994466;28;93185;-74
2022/04/14 06:20:10;;;;;;;39.90;26.38;;;;;;;;;;4992318;28;94221;-74
2022/04/14 06:22:37;;;;;;;34.35;25.80;;;;;;;;;;4992791;28;92905;-74
2022/04/14 06:25:04;;;;;;;41.13;25.98;;;;;;;;;;4991751;28;92936;-74
2022/04/14 06:27:30;;;;;;;31.45;25.05;;;;;;;;;;4991951;28;94068;-74
2022/04/14 06:29:56;;;;;;;40.90;25.58;;;;;;;;;;4990019;28;97219;-74
2022/04/14 06:32:23;;;;;;;33.63;24.60;;;;;;;;;;4992335;28;92876;-74
2022/04/14 06:34:53;;;;;;;34.05;24.45;;;;;;;;;;4992504;28;94185;-75
2022/04/14 06:37:19;;;;;;;30.38;23.98;;;;;;;;;;4994481;28;94214;-75
2022/04/14 06:39:45;;;;;;;34.40;22.15;;;;;;;;;;4991528;28;94100;-74
2022/04/14 06:42:12;;;;;;;24.05;21.05;;;;;;;;;;4992152;28;94144;-74
2022/04/14 06:44:38;;;;;;;30.00;21.67;;;;;;;;;;4991154;28;92449;-74
2022/04/14 06:47:05;;;;;;;29.00;21.45;;;;;;;;;;4992570;28;94059;-74
2022/04/14 06:49:31;;;;;;;25.52;20.20;;;;;;;;;;4991973;28;94309;-74
2022/04/14 06:51:57;;;;;;;30.25;20.70;;;;;;;;;;4993157;28;93089;-74
2022/04/14 06:54:24;;;;;;;34.65;20.58;;;;;;;;;;4989999;28;94853;-74
2022/04/14 06:56:50;;;;;;;29.55;19.15;;;;;;;;;;4991882;28;93443;-74
2022/04/14 06:59:16;;;;;;;28.67;19.88;;;;;;;;;;4994417;28;92569;-74
2022/04/14 07:01:43;;;;;;;26.33;19.80;;;;;;;;;;4991739;28;93893;-74
2022/04/14 07:04:09;;;;;;;27.48;19.75;;;;;;;;;;4991783;28;92463;-74
2022/04/14 07:06:36;;;;;;;22.73;18.70;;;;;;;;;;4991000;28;93964;-74
2022/04/14 07:09:02;;;;;;;25.05;19.95;;;;;;;;;;4991224;28;94100;-74
2022/04/14 07:11:28;;;;;;;25.77;19.25;;;;;;;;;;4991915;28;91799;-74
2022/04/14 07:13:55;;;;;;;23.50;18.55;;;;;;;;;;4991315;28;93388;-74
2022/04/14 07:16:21;;;;;;;30.42;19.65;;;;;;;;;;4991369;28;94364;-74
2022/04/14 07:18:47;;;;;;;27.23;18.17;;;;;;;;;;4990442;28;95351;-74
2022/04/14 07:21:14;;;;;;;28.70;16.48;;;;;;;;;;4996228;28;96335;-74
2022/04/14 07:23:40;;;;;;;24.80;18.05;;;;;;;;;;4994887;28;92510;-74
2022/04/14 07:26:06;;;;;;;24.35;18.60;;;;;;;;;;4994446;28;93191;-74
2022/04/14 07:28:33;;;;;;;21.42;16.02;;;;;;;;;;4994683;28;94039;-74
2022/04/14 07:30:59;;;;;;;22.35;15.98;;;;;;;;;;4995094;28;92481;-74
2022/04/14 07:33:25;;;;;;;19.80;16.05;;;;;;;;;;4994067;28;93228;-74
2022/04/14 07:35:52;;;;;;;26.73;17.42;;;;;;;;;;4995408;28;95571;-74
2022/04/14 07:38:19;;;;;;;24.15;17.40;;;;;;;;;;4994719;28;92402;-74
2022/04/14 07:40:45;;;;;;;23.60;17.65;;;;;;;;;;4993994;28;94537;-74
2022/04/14 07:43:12;;;;;;;23.92;17.08;;;;;;;;;;4996395;28;96947;-75
2022/04/14 07:45:39;;;;;;;24.80;17.73;;;;;;;;;;4994536;28;96385;-74
2022/04/14 07:48:06;;;;;;;25.88;17.83;;;;;;;;;;4994069;28;93466;-74
2022/04/14 07:50:32;;;;;;;26.85;17.13;;;;;;;;;;4994432;28;92488;-74
2022/04/14 07:53:01;;;;;;;28.67;17.48;;;;;;;;;;4994819;28;94271;-74
2022/04/14 07:55:29;;;;;;;26.75;17.23;;;;;;;;;;4993770;28;94975;-74
2022/04/14 07:57:57;;;;;;;27.88;16.55;;;;;;;;;;4994663;28;92482;-74
2022/04/14 08:00:24;;;;;;;26.92;17.75;;;;;;;;;;4994936;28;94100;-74
2022/04/14 08:02:54;;;;;;;23.73;17.48;;;;;;;;;;4993720;28;93506;-74
2022/04/14 08:05:22;;;;;;;20.98;17.00;;;;;;;;;;4997514;28;92499;-74
2022/04/14 08:07:48;;;;;;;22.92;17.63;;;;;;;;;;4992331;28;96684;-74
2022/04/14 08:10:15;;;;;;;24.30;17.20;;;;;;;;;;4993877;28;93167;-74
2022/04/14 08:12:41;;;;;;;23.05;16.65;;;;;;;;;;4994062;28;94014;-74
2022/04/14 08:15:08;;;;;;;24.23;16.40;;;;;;;;;;4994297;28;94087;-74
2022/04/14 08:17:36;;;;;;;21.48;16.38;;;;;;;;;;4993636;28;92520;-74
2022/04/14 08:20:05;;;;;;;23.08;17.20;;;;;;;;;;4994497;28;94872;-74
2022/04/14 08:22:44;;;;;;;34.20;17.52;;;;;;;;;;4993301;28;94390;-74
2022/04/14 08:25:12;;;;;;;20.55;17.13;;;;;;;;;;4994862;28;93057;-74
2022/04/14 08:27:38;;;;;;;28.55;16.98;;;;;;;;;;4996987;28;93268;-74
2022/04/14 08:30:05;;;;;;;23.40;16.75;;;;;;;;;;4993569;28;92837;-74
2022/04/14 08:32:34;;;;;;;17.98;15.25;;;;;;;;;;4991524;28;95357;-74
2022/04/14 08:35:03;;;;;;;23.48;17.65;;;;;;;;;;4994115;28;94274;-74
2022/04/14 08:37:30;;;;;;;17.88;15.70;;;;;;;;;;4993531;28;92484;-74
2022/04/14 08:39:57;;;;;;;22.77;16.55;;;;;;;;;;4993998;28;94123;-74
2022/04/14 08:42:31;;;;;;;21.90;14.32;;;;;;;;;;4993897;28;93171;-74
2022/04/14 08:45:01;;;;;;;20.25;13.50;;;;;;;;;;4993342;28;92449;-74
2022/04/14 08:47:29;;;;;;;15.18;13.25;;;;;;;;;;4996438;28;94016;-74
2022/04/14 08:49:56;;;;;;;21.95;13.65;;;;;;;;;;4994279;28;91756;-74
2022/04/14 08:52:23;;;;;;;19.88;14.13;;;;;;;;;;4992935;28;93150;-74
2022/04/14 08:54:50;;;;;;;16.50;12.02;;;;;;;;;;4993790;28;94359;-74
2022/04/14 08:57:16;;;;;;;21.30;13.93;;;;;;;;;;4992143;28;94860;-74
2022/04/14 08:59:44;;;;;;;16.05;11.70;;;;;;;;;;4992705;28;97027;-74
2022/04/14 09:02:28;;;;;;;17.20;12.63;;;;;;;;;;4993581;28;93400;-74
2022/04/14 09:04:56;;;;;;;17.77;12.75;;;;;;;;;;4993013;28;92598;-74
2022/04/14 09:07:22;;;;;;;14.80;11.43;;;;;;;;;;4992986;28;93325;-75
2022/04/14 09:09:48;;;;;;;14.65;10.50;;;;;;;;;;4996303;28;93472;-75
2022/04/14 09:12:15;;;;;;;13.38;11.05;;;;;;;;;;4993037;28;93219;-74
2022/04/14 09:14:41;;;;;;;13.15;11.77;;;;;;;;;;4993651;28;93333;-74
2022/04/14 09:17:09;;;;;;;19.75;11.68;;;;;;;;;;4993527;28;92549;-75
2022/04/14 09:19:36;;;;;;;18.35;10.52;;;;;;;;;;4992640;28;94087;-74
2022/04/14 09:22:04;;;;;;;17.33;10.70;;;;;;;;;;4991418;28;96783;-74
2022/04/14 09:24:39;;;;;;;12.23;10.35;;;;;;;;;;4992819;28;93294;-74
2022/04/14 09:27:06;;;;;;;13.40;10.68;;;;;;;;;;4992948;28;93899;-75
2022/04/14 09:29:32;;;;;;;14.70;10.05;;;;;;;;;;4993058;28;93133;-74
2022/04/14 09:31:59;;;;;;;15.85;10.48;;;;;;;;;;4996349;28;92428;-74
2022/04/14 09:34:51;;;;;;;12.05;9.18;;;;;;;;;;4992397;28;94484;-75
2022/04/14 09:37:18;;;;;;;14.90;8.13;;;;;;;;;;4993930;28;92487;-75
2022/04/14 09:39:55;;;;;;;14.07;8.45;;;;;;;;;;4993259;28;93343;-75
2022/04/14 09:42:22;;;;;;;13.10;8.30;;;;;;;;;;4993271;28;93814;-75
2022/04/14 09:44:49;;;;;;;13.75;8.05;;;;;;;;;;4993590;28;92751;-75
2022/04/14 09:47:23;;;;;;;11.95;7.90;;;;;;;;;;4991730;28;94849;-75
2022/04/14 09:49:49;;;;;;;8.13;7.32;;;;;;;;;;4993928;28;93505;-74
2022/04/14 09:52:15;;;;;;;12.02;8.13;;;;;;;;;;4993631;28;92548;-74
2022/04/14 09:54:42;;;;;;;10.80;7.93;;;;;;;;;;4995539;28;94058;-75
2022/04/14 09:57:12;;;;;;;12.85;8.10;;;;;;;;;;4993689;28;92527;-75
2022/04/14 09:59:38;;;;;;;12.85;7.80;;;;;;;;;;4993256;28;93951;-75
2022/04/14 10:02:09;;;;;;;9.88;7.50;;;;;;;;;;4992651;28;93184;-75
2022/04/14 10:04:46;;;;;;;10.15;7.95;;;;;;;;;;4993868;28;91845;-75
2022/04/14 10:07:14;;;;;;;11.23;7.57;;;;;;;;;;4993689;28;93579;-75
2022/04/14 10:09:42;;;;;;;8.80;6.30;;;;;;;;;;4992260;28;93329;-74
2022/04/14 10:12:17;;;;;;;11.02;6.95;;;;;;;;;;4992051;28;95293;-75
2022/04/14 10:14:56;;;;;;;9.25;6.47;;;;;;;;;;4992781;28;95553;-75
2022/04/14 10:17:26;;;;;;;6.03;5.53;;;;;;;;;;4996308;28;93616;-75
2022/04/14 10:19:52;;;;;;;7.90;6.28;;;;;;;;;;4993704;28;94369;-75
2022/04/14 10:22:19;;;;;;;8.57;6.10;;;;;;;;;;4992416;28;93190;-75
2022/04/14 10:24:46;;;;;;;9.02;5.53;;;;;;;;;;4992837;28;92466;-74
2022/04/14 10:27:14;;;;;;;9.30;6.68;;;;;;;;;;4993215;28;93984;-75
2022/04/14 10:29:41;;;;;;;9.40;6.53;;;;;;;;;;4992587;28;93338;-75
2022/04/14 10:32:07;;;;;;;10.77;7.63;;;;;;;;;;4993089;28;92470;-74
2022/04/14 10:34:34;;;;;;;8.75;7.88;;;;;;;;;;4992657;28;93960;-74
2022/04/14 10:37:02;;;;;;;8.25;7.30;;;;;;;;;;4990716;28;97464;-73
2022/04/14 10:39:31;;;;;;;9.95;6.90;;;;;;;;;;4995094;28;92503;-74
2022/04/14 10:41:59;;;;;;;11.30;6.78;;;;;;;;;;4992774;28;95832;-75
2022/04/14 10:44:42;;;;;;;10.63;6.85;;;;;;;;;;4992269;28;92514;-75
2022/04/14 10:47:09;;;;;;;8.40;5.95;;;;;;;;;;4993291;28;93330;-75
2022/04/14 10:49:39;;;;;;;9.50;6.07;;;;;;;;;;4993100;28;94230;-75
2022/04/14 10:52:26;;;;;;;7.70;5.55;;;;;;;;;;4992780;28;92471;-74
2022/04/14 10:54:56;;;;;;;8.65;6.53;;;;;;;;;;4993946;28;93436;-75
2022/04/14 10:57:35;;;;;;;9.23;4.93;;;;;;;;;;4995715;28;93636;-75
2022/04/14 11:00:01;;;;;;;12.20;7.18;;;;;;;;;;4999531;28;92541;-74
2022/04/14 11:02:47;;;;;;;8.13;6.82;;;;;;;;;;4994580;28;96632;-75
2022/04/14 11:05:32;;;;;;;6.63;5.97;;;;;;;;;;4995559;28;92464;-74
2022/04/14 11:08:17;;;;;;;7.00;5.20;;;;;;;;;;4995761;28;93896;-75
2022/04/14 11:11:03;;;;;;;7.13;4.25;;;;;;;;;;4995713;28;93156;-75
2022/04/14 11:13:47;;;;;;;6.10;4.68;;;;;;;;;;4995808;28;92475;-75
2022/04/14 11:16:32;;;;;;;5.60;4.43;;;;;;;;;;4996207;28;93102;-75
2022/04/14 11:19:17;;;;;;;7.55;4.32;;;;;;;;;;4995297;28;93200;-75
2022/04/14 11:22:02;;;;;;;5.15;3.75;;;;;;;;;;4996305;28;91696;-75
2022/04/14 11:24:42;;;;;;;5.90;4.68;;;;;;;;;;4998664;28;93087;-75
2022/04/14 11:27:17;;;;;;;10.30;4.88;;;;;;;;;;4995190;28;92807;-75
2022/04/14 11:29:44;;;;;;;5.93;5.22;;;;;;;;;;4994354;28;94961;-74
2022/04/14 11:32:11;;;;;;;5.68;4.78;;;;;;;;;;4994997;28;93273;-74
2022/04/14 11:35:08;;;;;;;5.03;4.30;;;;;;;;;;4995998;28;92505;-74
2022/04/14 11:37:42;;;;;;;6.97;4.22;;;;;;;;;;4995396;28;94299;-75
2022/04/14 11:40:18;;;;;;;5.25;4.40;;;;;;;;;;4995168;28;94326;-74
2022/04/14 11:42:51;;;;;;;5.55;4.85;;;;;;;;;;4995803;28;92490;-74
2022/04/14 11:45:20;;;;;;;5.20;4.05;;;;;;;;;;4995924;28;93948;-74
2022/04/14 11:47:47;;;;;;;3.80;3.25;;;;;;;;;;4998274;28;92429;-75
2022/04/14 11:50:13;;;;;;;4.35;3.85;;;;;;;;;;4995618;28;93083;-74
2022/04/14 11:52:41;;;;;;;9.40;4.40;;;;;;;;;;4995044;28;93502;-75
2022/04/14 11:55:07;;;;;;;4.90;3.90;;;;;;;;;;4993374;28;95390;-74
2022/04/14 11:57:37;;;;;;;4.70;4.22;;;;;;;;;;4995322;28;96737;-74
2022/04/14 12:00:10;;;;;;;7.40;4.50;;;;;;;;;;4995033;28;94225;-75
2022/04/14 12:02:49;;;;;;;7.80;4.78;;;;;;;;;;4994673;28;92411;-75
2022/04/14 12:05:18;;;;;;;4.70;4.28;;;;;;;;;;4995391;28;92823;-75
2022/04/14 12:07:44;;;;;;;4.85;4.55;;;;;;;;;;4993384;28;93770;-75
2022/04/14 12:10:10;;;;;;;6.68;6.07;;;;;;;;;;4998423;28;92418;-74
2022/04/14 12:12:37;;;;;;;4.88;4.47;;;;;;;;;;4995145;28;95044;-75
2022/04/14 12:15:05;;;;;;;5.90;4.95;;;;;;;;;;4994490;28;92444;-75
2022/04/14 12:17:33;;;;;;;7.70;5.53;;;;;;;;;;4994883;28;94162;-75
2022/04/14 12:20:01;;;;;;;7.03;6.05;;;;;;;;;;4993029;28;96601;-75
2022/04/14 12:22:28;;;;;;;7.68;6.97;;;;;;;;;;4994244;28;92959;-75
2022/04/14 12:24:56;;;;;;;6.93;6.40;;;;;;;;;;4995050;28;94475;-75
2022/04/14 12:27:27;;;;;;;7.32;6.78;;;;;;;;;;4994625;28;93693;-75
2022/04/14 12:29:53;;;;;;;12.25;8.50;;;;;;;;;;4994126;28;92478;-75
2022/04/14 12:32:27;;;;;;;8.95;8.13;;;;;;;;;;4997898;28;94352;-75
2022/04/14 12:34:54;;;;;;;8.05;7.32;;;;;;;;;;4994836;28;92986;-75
2022/04/14 12:37:20;;;;;;;10.38;8.73;;;;;;;;;;4994618;28;94065;-76
2022/04/14 12:39:58;;;;;;;10.40;9.35;;;;;;;;;;4994588;28;93777;-75
2022/04/14 12:42:25;;;;;;;10.18;9.05;;;;;;;;;;4994225;28;92506;-76
2022/04/14 12:44:52;;;;;;;9.90;8.82;;;;;;;;;;4992743;28;94892;-76
2022/04/14 12:47:26;;;;;;;11.75;9.73;;;;;;;;;;4994449;28;94259;-76
2022/04/14 12:49:53;;;;;;;14.35;10.80;;;;;;;;;;4994015;28;93213;-74
2022/04/14 12:52:19;;;;;;;11.15;10.05;;;;;;;;;;4996720;28;93907;-74
2022/04/14 12:54:46;;;;;;;13.43;8.77;;;;;;;;;;4993459;28;92471;-74
2022/04/14 12:57:17;;;;;;;10.60;8.68;;;;;;;;;;4994236;28;94057;-74
2022/04/14 12:59:58;;;;;;;10.80;8.70;;;;;;;;;;4994087;28;94173;-76
2022/04/14 13:02:25;;;;;;;8.80;7.55;;;;;;;;;;4994845;28;91717;-75
2022/04/14 13:04:51;;;;;;;9.18;8.25;;;;;;;;;;4993925;28;93188;-75
2022/04/14 13:07:17;;;;;;;9.88;8.15;;;;;;;;;;4994321;28;93294;-75
2022/04/14 13:10:01;;;;;;;9.25;7.07;;;;;;;;;;4992497;28;94877;-75
2022/04/14 13:12:37;;;;;;;9.20;6.93;;;;;;;;;;4993395;28;96530;-75
2022/04/14 13:15:04;;;;;;;14.13;7.00;;;;;;;;;;4997184;28;94262;-76
2022/04/14 13:17:36;;;;;;;7.57;6.80;;;;;;;;;;4993352;28;93868;-75
2022/04/14 13:20:29;;;;;;;9.13;5.70;;;;;;;;;;4994125;28;94977;-75
2022/04/14 13:22:56;;;;;;;;;;;;;;;;;;4990550;28;93734;-75
2022/04/14 13:25:22;;;;;;;6.07;5.63;;;;;;;;;;4993783;28;124086;-76
2022/04/14 13:27:51;;;;;;;6.38;5.57;;;;;;;;;;4994751;28;92338;-75
2022/04/14 13:30:17;;;;;;;6.20;5.45;;;;;;;;;;4994231;28;92531;-76
2022/04/14 13:32:44;;;;;;;6.57;5.50;;;;;;;;;;4993199;28;94202;-75
2022/04/14 13:35:10;;;;;;;8.80;4.90;;;;;;;;;;4992042;28;95828;-76
2022/04/14 13:37:36;;;;;;;5.03;4.53;;;;;;;;;;4996700;28;92495;-76
2022/04/14 13:40:04;;;;;;;8.00;3.72;;;;;;;;;;4993259;28;94415;-75
2022/04/14 13:42:31;;;;;;;5.28;4.35;;;;;;;;;;4993749;28;92481;-76
2022/04/14 13:44:58;;;;;;;5.75;4.97;;;;;;;;;;4994056;28;94840;-76
2022/04/14 13:47:24;;;;;;;4.28;3.72;;;;;;;;;;4992592;28;94169;-75
2022/04/14 13:49:51;;;;;;;7.20;4.40;;;;;;;;;;4994533;28;93623;-76
2022/04/14 13:52:17;;;;;;;9.57;4.43;;;;;;;;;;4994049;28;93936;-76
2022/04/14 13:54:44;;;;;;;5.20;4.70;;;;;;;;;;4992386;28;94208;-76
2022/04/14 13:57:10;;;;;;;4.65;4.20;;;;;;;;;;4993535;28;92498;-75
2022/04/14 13:59:37;;;;;;;12.57;4.35;;;;;;;;;;4994672;28;95176;-76
2022/04/14 14:02:04;;;;;;;8.80;4.97;;;;;;;;;;4993078;28;92916;-76
2022/04/14 14:04:30;;;;;;;6.20;4.55;;;;;;;;;;4993257;28;93942;-76
2022/04/14 14:06:57;;;;;;;6.20;5.15;;;;;;;;;;4992563;28;94195;-76
2022/04/14 14:09:23;;;;;;;5.15;4.75;;;;;;;;;;4993067;28;92478;-76
2022/04/14 14:11:49;;;;;;;10.98;6.63;;;;;;;;;;4993122;28;93891;-76
2022/04/14 14:14:20;;;;;;;7.03;6.00;;;;;;;;;;4992739;28;94116;-75
2022/04/14 14:16:46;;;;;;;6.38;5.57;;;;;;;;;;4993917;28;91817;-75
2022/04/14 14:19:13;;;;;;;8.02;7.07;;;;;;;;;;4993591;28;92945;-74
2022/04/14 14:21:39;;;;;;;7.35;6.10;;;;;;;;;;4995420;28;94230;-75
2022/04/14 14:24:06;;;;;;;6.30;5.78;;;;;;;;;;4991808;28;96179;-74
2022/04/14 14:26:32;;;;;;;9.05;6.53;;;;;;;;;;4992629;28;94119;-74
2022/04/14 14:28:58;;;;;;;9.00;7.80;;;;;;;;;;4992558;28;92485;-74
2022/04/14 14:31:25;;;;;;;8.52;7.72;;;;;;;;;;4992710;28;93964;-75